sensor_id;sensor_type;location;lat;lon;timestamp;temperature;humidity
1880;DHT22;49285;49.002;8.390;2023-04-01T00:00:21;11.60;99.90
1880;DHT22;49285;49.002;8.390;2023-04-01T00:02:47;11.50;99.90
1880;DHT22;49285;49.002;8.390;2023-04-01T00:05:13;11.50;99.90
1880;DHT22;49285;49.002;8.390;2023-04-01T00:07:40;11.40;99.90
1880;DHT22;49285;49.002;8.390;2023-04-01T00:10:10;11.50;99.90
1880;DHT22;49285;49.002;8.390;2023-04-01T00:12:37;11.50;99.90
1880;DHT22;49285;49.002;8.390;2023-04-01T00:15:04;11.40;99.90
1880;DHT22;49285;49.002;8.390;2023-04-01T00:17:30;11.50;99.90
1880;DHT22;49285;49.002;8.390;2023-04-01T00:19:56;11.40;99.90
1880;DHT22;49285;49.002;8.390;2023-04-01T00:22:23;11.40;99.90
1880;DHT22;49285;49.002;8.390;2023-04-01T00:24:48;11.50;99.90
1880;DHT22;49285;49.002;8.390;2023-04-01T00:27:15;11.50;99.90
1880;DHT22;49285;49.002;8.390;2023-04-01T00:29:44;11.50;99.90
1880;DHT22;49285;49.002;8.390;2023-04-01T00:32:11;11.60;99.90
1880;DHT22;49285;49.002;8.390;2023-04-01T00:34:36;11.50;99.90
1880;DHT22;49285;49.002;8.390;2023-04-01T00:37:03;11.50;99.90
1880;DHT22;49285;49.002;8.390;2023-04-01T00:39:30;11.60;99.90
1880;DHT22;49285;49.002;8.390;2023-04-01T00:41:56;11.60;99.90
1880;DHT22;49285;49.002;8.390;2023-04-01T00:44:25;11.70;99.90
1880;DHT22;49285;49.002;8.390;2023-04-01T00:46:51;11.60;99.90
1880;DHT22;49285;49.002;8.390;2023-04-01T00:49:19;11.70;99.90
1880;DHT22;49285;49.002;8.390;2023-04-01T00:51:47;11.70;99.90
1880;DHT22;49285;49.002;8.390;2023-04-01T00:54:14;11.70;99.90
1880;DHT22;49285;49.002;8.390;2023-04-01T00:56:45;11.60;99.90
1880;DHT22;49285;49.002;8.390;2023-04-01T00:59:18;11.70;99.90
1880;DHT22;49285;49.002;8.390;2023-04-01T01:01:44;11.60;99.90
1880;DHT22;49285;49.002;8.390;2023-04-01T01:04:45;11.70;99.90
1880;DHT22;49285;49.002;8.390;2023-04-01T01:10:32;11.50;99.90
1880;DHT22;49285;49.002;8.390;2023-04-01T01:15:52;11.50;99.90
1880;DHT22;49285;49.002;8.390;2023-04-01T01:18:37;11.50;99.90
1880;DHT22;49285;49.002;8.390;2023-04-01T01:27:06;11.40;99.90
1880;DHT22;49285;49.002;8.390;2023-04-01T01:29:54;11.50;99.90
1880;DHT22;49285;49.002;8.390;2023-04-01T01:38:01;11.40;99.90
1880;DHT22;49285;49.002;8.390;2023-04-01T01:40:28;11.40;99.90
1880;DHT22;49285;49.002;8.390;2023-04-01T01:42:59;11.30;99.90
1880;DHT22;49285;49.002;8.390;2023-04-01T01:45:26;11.40;99.90
1880;DHT22;49285;49.002;8.390;2023-04-01T01:47:53;11.40;99.90
1880;DHT22;49285;49.002;8.390;2023-04-01T01:50:21;11.30;99.90
1880;DHT22;49285;49.002;8.390;2023-04-01T01:52:47;11.40;99.90
1880;DHT22;49285;49.002;8.390;2023-04-01T01:55:31;11.20;99.90
1880;DHT22;49285;49.002;8.390;2023-04-01T01:58:06;11.30;99.90
1880;DHT22;49285;49.002;8.390;2023-04-01T02:00:34;11.30;99.90
1880;DHT22;49285;49.002;8.390;2023-04-01T02:03:00;11.30;99.90
1880;DHT22;49285;49.002;8.390;2023-04-01T02:05:27;11.10;99.90
1880;DHT22;49285;49.002;8.390;2023-04-01T02:08:18;11.10;99.90
1880;DHT22;49285;49.002;8.390;2023-04-01T02:10:53;11.10;99.90
1880;DHT22;49285;49.002;8.390;2023-04-01T02:13:41;11.10;99.90
1880;DHT22;49285;49.002;8.390;2023-04-01T02:16:23;11.10;99.90
1880;DHT22;49285;49.002;8.390;2023-04-01T02:18:52;11.10;99.90
1880;DHT22;49285;49.002;8.390;2023-04-01T02:21:21;11.20;99.90
1880;DHT22;49285;49.002;8.390;2023-04-01T02:23:49;11.10;99.90
1880;DHT22;49285;49.002;8.390;2023-04-01T02:26:16;11.10;99.90
1880;DHT22;49285;49.002;8.390;2023-04-01T02:28:43;11.00;99.90
1880;DHT22;49285;49.002;8.390;2023-04-01T02:31:10;11.00;99.90
1880;DHT22;49285;49.002;8.390;2023-04-01T02:33:38;11.10;99.90
1880;DHT22;49285;49.002;8.390;2023-04-01T02:36:05;11.00;99.90
1880;DHT22;49285;49.002;8.390;2023-04-01T02:38:31;11.10;99.90
1880;DHT22;49285;49.002;8.390;2023-04-01T02:40:58;11.00;99.90
1880;DHT22;49285;49.002;8.390;2023-04-01T02:43:24;11.00;99.90
1880;DHT22;49285;49.002;8.390;2023-04-01T02:45:50;11.00;99.90
1880;DHT22;49285;49.002;8.390;2023-04-01T02:48:16;11.00;99.90
1880;DHT22;49285;49.002;8.390;2023-04-01T02:50:41;11.10;99.90
1880;DHT22;49285;49.002;8.390;2023-04-01T02:53:07;11.00;99.90
1880;DHT22;49285;49.002;8.390;2023-04-01T02:55:33;11.00;99.90
1880;DHT22;49285;49.002;8.390;2023-04-01T02:57:59;10.90;99.90
1880;DHT22;49285;49.002;8.390;2023-04-01T03:00:25;11.00;99.90
1880;DHT22;49285;49.002;8.390;2023-04-01T03:02:51;11.00;99.90
1880;DHT22;49285;49.002;8.390;2023-04-01T03:05:17;10.90;99.90
1880;DHT22;49285;49.002;8.390;2023-04-01T03:07:43;10.80;99.90
1880;DHT22;49285;49.002;8.390;2023-04-01T03:10:09;10.80;99.90
1880;DHT22;49285;49.002;8.390;2023-04-01T03:12:35;11.00;99.90
1880;DHT22;49285;49.002;8.390;2023-04-01T03:15:01;11.00;99.90
1880;DHT22;49285;49.002;8.390;2023-04-01T03:17:26;11.10;99.90
1880;DHT22;49285;49.002;8.390;2023-04-01T03:19:52;11.00;99.90
1880;DHT22;49285;49.002;8.390;2023-04-01T03:22:18;11.00;99.90
1880;DHT22;49285;49.002;8.390;2023-04-01T03:24:49;11.00;99.90
1880;DHT22;49285;49.002;8.390;2023-04-01T03:27:15;10.80;99.90
1880;DHT22;49285;49.002;8.390;2023-04-01T03:29:41;10.90;99.90
1880;DHT22;49285;49.002;8.390;2023-04-01T03:32:06;11.00;99.90
1880;DHT22;49285;49.002;8.390;2023-04-01T03:34:32;11.00;99.90
1880;DHT22;49285;49.002;8.390;2023-04-01T03:36:58;11.10;99.90
1880;DHT22;49285;49.002;8.390;2023-04-01T03:39:23;11.00;99.90
1880;DHT22;49285;49.002;8.390;2023-04-01T03:41:49;11.00;99.90
1880;DHT22;49285;49.002;8.390;2023-04-01T03:44:15;11.00;99.90
1880;DHT22;49285;49.002;8.390;2023-04-01T03:46:40;11.10;99.90
1880;DHT22;49285;49.002;8.390;2023-04-01T03:49:08;11.10;99.90
1880;DHT22;49285;49.002;8.390;2023-04-01T03:51:37;11.10;99.90
1880;DHT22;49285;49.002;8.390;2023-04-01T03:54:04;11.10;99.90
1880;DHT22;49285;49.002;8.390;2023-04-01T03:56:30;11.10;99.90
1880;DHT22;49285;49.002;8.390;2023-04-01T03:58:55;11.00;99.90
1880;DHT22;49285;49.002;8.390;2023-04-01T04:01:22;11.10;99.90
1880;DHT22;49285;49.002;8.390;2023-04-01T04:03:48;11.10;99.90
1880;DHT22;49285;49.002;8.390;2023-04-01T04:06:16;11.10;99.90
1880;DHT22;49285;49.002;8.390;2023-04-01T04:08:41;11.10;99.90
1880;DHT22;49285;49.002;8.390;2023-04-01T04:11:08;11.00;99.90
1880;DHT22;49285;49.002;8.390;2023-04-01T04:13:34;11.10;99.90
1880;DHT22;49285;49.002;8.390;2023-04-01T04:15:59;11.20;99.90
1880;DHT22;49285;49.002;8.390;2023-04-01T04:18:25;11.10;99.90
1880;DHT22;49285;49.002;8.390;2023-04-01T04:20:50;11.10;99.90
1880;DHT22;49285;49.002;8.390;2023-04-01T04:23:17;11.10;99.90
1880;DHT22;49285;49.002;8.390;2023-04-01T04:25:57;11.10;99.90
1880;DHT22;49285;49.002;8.390;2023-04-01T04:28:26;11.00;99.90
1880;DHT22;49285;49.002;8.390;2023-04-01T04:30:52;11.10;99.90
1880;DHT22;49285;49.002;8.390;2023-04-01T04:33:17;11.10;99.90
1880;DHT22;49285;49.002;8.390;2023-04-01T04:35:43;11.20;99.90
1880;DHT22;49285;49.002;8.390;2023-04-01T04:38:09;11.20;99.90
1880;DHT22;49285;49.002;8.390;2023-04-01T04:40:36;11.20;99.90
1880;DHT22;49285;49.002;8.390;2023-04-01T04:43:02;11.20;99.90
1880;DHT22;49285;49.002;8.390;2023-04-01T04:45:28;11.10;99.90
1880;DHT22;49285;49.002;8.390;2023-04-01T04:47:54;11.20;99.90
1880;DHT22;49285;49.002;8.390;2023-04-01T04:50:19;11.30;99.90
1880;DHT22;49285;49.002;8.390;2023-04-01T04:52:45;11.30;99.90
1880;DHT22;49285;49.002;8.390;2023-04-01T04:55:10;11.30;99.90
1880;DHT22;49285;49.002;8.390;2023-04-01T04:57:36;11.30;99.90
1880;DHT22;49285;49.002;8.390;2023-04-01T05:00:02;11.30;99.90
1880;DHT22;49285;49.002;8.390;2023-04-01T05:02:28;11.30;99.90
1880;DHT22;49285;49.002;8.390;2023-04-01T05:04:54;11.30;99.90
1880;DHT22;49285;49.002;8.390;2023-04-01T05:07:19;11.30;99.90
1880;DHT22;49285;49.002;8.390;2023-04-01T05:09:45;11.30;99.90
1880;DHT22;49285;49.002;8.390;2023-04-01T05:12:12;11.30;99.90
1880;DHT22;49285;49.002;8.390;2023-04-01T05:14:38;11.30;99.90
1880;DHT22;49285;49.002;8.390;2023-04-01T05:17:04;11.30;99.90
1880;DHT22;49285;49.002;8.390;2023-04-01T05:19:29;11.20;99.90
1880;DHT22;49285;49.002;8.390;2023-04-01T05:21:55;11.30;99.90
1880;DHT22;49285;49.002;8.390;2023-04-01T05:24:20;11.20;99.90
1880;DHT22;49285;49.002;8.390;2023-04-01T05:26:46;11.20;99.90
1880;DHT22;49285;49.002;8.390;2023-04-01T05:29:11;11.30;99.90
1880;DHT22;49285;49.002;8.390;2023-04-01T05:31:37;11.20;99.90
1880;DHT22;49285;49.002;8.390;2023-04-01T05:34:02;11.20;99.90
1880;DHT22;49285;49.002;8.390;2023-04-01T05:36:28;11.20;99.90
1880;DHT22;49285;49.002;8.390;2023-04-01T05:38:57;11.10;99.90
1880;DHT22;49285;49.002;8.390;2023-04-01T05:41:22;11.20;99.90
1880;DHT22;49285;49.002;8.390;2023-04-01T05:43:48;11.20;99.90
1880;DHT22;49285;49.002;8.390;2023-04-01T05:46:13;11.00;99.90
1880;DHT22;49285;49.002;8.390;2023-04-01T05:48:39;10.90;99.90
1880;DHT22;49285;49.002;8.390;2023-04-01T05:51:04;10.80;99.90
1880;DHT22;49285;49.002;8.390;2023-04-01T05:53:30;10.80;99.90
1880;DHT22;49285;49.002;8.390;2023-04-01T05:55:56;10.80;99.90
1880;DHT22;49285;49.002;8.390;2023-04-01T05:58:22;10.70;99.90
1880;DHT22;49285;49.002;8.390;2023-04-01T06:00:47;10.60;99.90
1880;DHT22;49285;49.002;8.390;2023-04-01T06:03:13;10.70;99.90
1880;DHT22;49285;49.002;8.390;2023-04-01T06:05:41;10.60;99.90
1880;DHT22;49285;49.002;8.390;2023-04-01T06:08:15;10.60;99.90
1880;DHT22;49285;49.002;8.390;2023-04-01T06:13:32;10.50;99.90
1880;DHT22;49285;49.002;8.390;2023-04-01T06:21:42;10.40;99.90
1880;DHT22;49285;49.002;8.390;2023-04-01T06:35:20;10.50;99.90
1880;DHT22;49285;49.002;8.390;2023-04-01T06:49:53;10.50;99.90
1880;DHT22;49285;49.002;8.390;2023-04-01T06:52:25;10.60;99.90
1880;DHT22;49285;49.002;8.390;2023-04-01T06:54:58;10.60;99.90
1880;DHT22;49285;49.002;8.390;2023-04-01T06:57:34;10.60;99.90
1880;DHT22;49285;49.002;8.390;2023-04-01T07:00:04;10.70;99.90
1880;DHT22;49285;49.002;8.390;2023-04-01T07:02:41;10.70;99.90
1880;DHT22;49285;49.002;8.390;2023-04-01T07:05:11;10.70;99.90
1880;DHT22;49285;49.002;8.390;2023-04-01T07:07:42;10.60;99.90
1880;DHT22;49285;49.002;8.390;2023-04-01T07:10:25;10.60;99.90
1880;DHT22;49285;49.002;8.390;2023-04-01T07:12:56;10.60;99.90
1880;DHT22;49285;49.002;8.390;2023-04-01T07:15:44;10.60;99.90
1880;DHT22;49285;49.002;8.390;2023-04-01T07:18:21;10.60;99.90
1880;DHT22;49285;49.002;8.390;2023-04-01T07:20:49;10.70;99.90
1880;DHT22;49285;49.002;8.390;2023-04-01T07:23:32;10.60;99.90
1880;DHT22;49285;49.002;8.390;2023-04-01T07:26:23;10.60;99.90
1880;DHT22;49285;49.002;8.390;2023-04-01T07:28:51;10.50;99.90
1880;DHT22;49285;49.002;8.390;2023-04-01T07:34:25;10.60;99.90
1880;DHT22;49285;49.002;8.390;2023-04-01T07:37:14;10.50;99.90
1880;DHT22;49285;49.002;8.390;2023-04-01T07:45:37;10.50;99.90
1880;DHT22;49285;49.002;8.390;2023-04-01T07:48:34;10.40;99.90
1880;DHT22;49285;49.002;8.390;2023-04-01T07:59:25;10.40;99.90
1880;DHT22;49285;49.002;8.390;2023-04-01T08:05:06;10.40;99.90
1880;DHT22;49285;49.002;8.390;2023-04-01T08:07:59;10.40;99.90
1880;DHT22;49285;49.002;8.390;2023-04-01T08:13:20;10.50;99.90
1880;DHT22;49285;49.002;8.390;2023-04-01T08:15:54;10.60;99.90
1880;DHT22;49285;49.002;8.390;2023-04-01T08:21:27;10.80;99.90
1880;DHT22;49285;49.002;8.390;2023-04-01T08:23:56;10.90;99.90
1880;DHT22;49285;49.002;8.390;2023-04-01T08:34:20;10.90;99.90
1880;DHT22;49285;49.002;8.390;2023-04-01T08:36:53;10.90;99.90
1880;DHT22;49285;49.002;8.390;2023-04-01T08:39:37;10.90;99.90
1880;DHT22;49285;49.002;8.390;2023-04-01T08:45:22;10.90;99.90
1880;DHT22;49285;49.002;8.390;2023-04-01T08:57:32;11.00;99.90
1880;DHT22;49285;49.002;8.390;2023-04-01T08:59:55;11.10;99.90
1880;DHT22;49285;49.002;8.390;2023-04-01T09:11:03;11.20;99.90
1880;DHT22;49285;49.002;8.390;2023-04-01T09:13:50;11.10;99.90
1880;DHT22;49285;49.002;8.390;2023-04-01T09:26:03;11.10;99.90
1880;DHT22;49285;49.002;8.390;2023-04-01T09:28:42;11.20;99.90
1880;DHT22;49285;49.002;8.390;2023-04-01T09:37:19;11.20;99.90
1880;DHT22;49285;49.002;8.390;2023-04-01T09:45:21;11.10;99.90
1880;DHT22;49285;49.002;8.390;2023-04-01T09:53:27;11.00;99.90
1880;DHT22;49285;49.002;8.390;2023-04-01T10:03:43;11.30;99.90
1880;DHT22;49285;49.002;8.390;2023-04-01T10:06:49;11.20;99.90
1880;DHT22;49285;49.002;8.390;2023-04-01T10:14:58;11.00;99.90
1880;DHT22;49285;49.002;8.390;2023-04-01T10:21:16;10.90;99.90
1880;DHT22;49285;49.002;8.390;2023-04-01T10:33:01;11.00;99.90
1880;DHT22;49285;49.002;8.390;2023-04-01T10:56:39;11.10;99.90
1880;DHT22;49285;49.002;8.390;2023-04-01T11:33:23;11.00;99.90
1880;DHT22;49285;49.002;8.390;2023-04-01T11:36:20;11.00;99.90
1880;DHT22;49285;49.002;8.390;2023-04-01T11:39:11;11.10;99.90
1880;DHT22;49285;49.002;8.390;2023-04-01T11:44:29;11.00;99.90
1880;DHT22;49285;49.002;8.390;2023-04-01T11:47:38;11.20;99.90
1880;DHT22;49285;49.002;8.390;2023-04-01T12:01:02;11.30;99.90
1880;DHT22;49285;49.002;8.390;2023-04-01T12:06:21;11.20;99.90
1880;DHT22;49285;49.002;8.390;2023-04-01T12:17:12;11.10;99.90
1880;DHT22;49285;49.002;8.390;2023-04-01T12:19:46;11.00;99.90
1880;DHT22;49285;49.002;8.390;2023-04-01T12:22:45;10.80;99.90
1880;DHT22;49285;49.002;8.390;2023-04-01T12:30:49;10.90;99.90
1880;DHT22;49285;49.002;8.390;2023-04-01T12:39:35;10.90;99.90
1880;DHT22;49285;49.002;8.390;2023-04-01T12:51:09;11.10;99.90
1880;DHT22;49285;49.002;8.390;2023-04-01T13:05:20;11.00;99.90
1880;DHT22;49285;49.002;8.390;2023-04-01T13:08:12;11.00;99.90
1880;DHT22;49285;49.002;8.390;2023-04-01T13:11:08;11.00;99.90
1880;DHT22;49285;49.002;8.390;2023-04-01T13:13:47;11.10;99.90
1880;DHT22;49285;49.002;8.390;2023-04-01T13:19:24;11.50;99.90
1880;DHT22;49285;49.002;8.390;2023-04-01T13:21:58;11.30;99.90
1880;DHT22;49285;49.002;8.390;2023-04-01T13:24:51;11.40;99.90
1880;DHT22;49285;49.002;8.390;2023-04-01T13:32:41;11.40;99.90
1880;DHT22;49285;49.002;8.390;2023-04-01T13:41:05;11.30;99.90
1880;DHT22;49285;49.002;8.390;2023-04-01T13:43:41;11.30;99.90
1880;DHT22;49285;49.002;8.390;2023-04-01T13:54:46;11.20;99.90
1880;DHT22;49285;49.002;8.390;2023-04-01T14:00:27;11.30;99.90
1880;DHT22;49285;49.002;8.390;2023-04-01T14:03:13;11.40;99.90
1880;DHT22;49285;49.002;8.390;2023-04-01T14:06:11;11.30;99.90
1880;DHT22;49285;49.002;8.390;2023-04-01T14:22:52;11.20;99.90
1880;DHT22;49285;49.002;8.390;2023-04-01T14:33:25;11.30;99.90
1880;DHT22;49285;49.002;8.390;2023-04-01T14:39:08;11.20;99.90
1880;DHT22;49285;49.002;8.390;2023-04-01T14:49:36;11.30;99.90
1880;DHT22;49285;49.002;8.390;2023-04-01T14:52:32;11.30;99.90
1880;DHT22;49285;49.002;8.390;2023-04-01T14:55:18;11.30;99.90
1880;DHT22;49285;49.002;8.390;2023-04-01T14:58:08;11.40;99.90
1880;DHT22;49285;49.002;8.390;2023-04-01T15:00:58;11.40;99.90
1880;DHT22;49285;49.002;8.390;2023-04-01T15:09:47;11.40;99.90
1880;DHT22;49285;49.002;8.390;2023-04-01T15:12:32;11.40;99.90
1880;DHT22;49285;49.002;8.390;2023-04-01T15:18:01;11.40;99.90
1880;DHT22;49285;49.002;8.390;2023-04-01T15:20:44;11.40;99.90
1880;DHT22;49285;49.002;8.390;2023-04-01T15:23:21;11.40;99.90
1880;DHT22;49285;49.002;8.390;2023-04-01T15:26:13;11.50;99.90
1880;DHT22;49285;49.002;8.390;2023-04-01T15:31:53;11.70;99.90
1880;DHT22;49285;49.002;8.390;2023-04-01T15:40:27;11.80;99.90
1880;DHT22;49285;49.002;8.390;2023-04-01T15:45:33;11.80;99.90
1880;DHT22;49285;49.002;8.390;2023-04-01T15:50:45;11.80;99.90
1880;DHT22;49285;49.002;8.390;2023-04-01T16:01:47;11.60;99.90
1880;DHT22;49285;49.002;8.390;2023-04-01T16:17:41;11.60;99.90
1880;DHT22;49285;49.002;8.390;2023-04-01T16:22:40;11.60;99.90
1880;DHT22;49285;49.002;8.390;2023-04-01T16:25:45;11.60;99.90
1880;DHT22;49285;49.002;8.390;2023-04-01T16:31:34;11.70;99.90
1880;DHT22;49285;49.002;8.390;2023-04-01T16:34:19;11.70;99.90
1880;DHT22;49285;49.002;8.390;2023-04-01T16:37:00;11.70;99.90
1880;DHT22;49285;49.002;8.390;2023-04-01T16:45:53;11.80;99.90
1880;DHT22;49285;49.002;8.390;2023-04-01T16:47:53;11.80;99.90
1880;DHT22;49285;49.002;8.390;2023-04-01T16:50:42;11.70;99.90
1880;DHT22;49285;49.002;8.390;2023-04-01T16:58:33;11.70;99.90
1880;DHT22;49285;49.002;8.390;2023-04-01T17:01:07;11.60;99.90
1880;DHT22;49285;49.002;8.390;2023-04-01T17:03:40;11.60;99.90
1880;DHT22;49285;49.002;8.390;2023-04-01T17:06:45;11.60;99.90
1880;DHT22;49285;49.002;8.390;2023-04-01T17:25:20;11.70;99.90
1880;DHT22;49285;49.002;8.390;2023-04-01T17:33:47;11.70;99.90
1880;DHT22;49285;49.002;8.390;2023-04-01T17:42:15;11.70;99.90
1880;DHT22;49285;49.002;8.390;2023-04-01T17:45:21;11.60;99.90
1880;DHT22;49285;49.002;8.390;2023-04-01T17:48:01;11.70;99.90
1880;DHT22;49285;49.002;8.390;2023-04-01T17:51:13;11.70;99.90
1880;DHT22;49285;49.002;8.390;2023-04-01T17:56:40;11.70;99.90
1880;DHT22;49285;49.002;8.390;2023-04-01T18:02:24;11.50;99.90
1880;DHT22;49285;49.002;8.390;2023-04-01T18:05:05;11.40;99.90
1880;DHT22;49285;49.002;8.390;2023-04-01T18:13:05;11.40;99.90
1880;DHT22;49285;49.002;8.390;2023-04-01T18:15:49;11.40;99.90
1880;DHT22;49285;49.002;8.390;2023-04-01T18:26:32;11.30;99.90
1880;DHT22;49285;49.002;8.390;2023-04-01T18:31:54;11.20;99.90
1880;DHT22;49285;49.002;8.390;2023-04-01T18:37:28;11.10;99.90
1880;DHT22;49285;49.002;8.390;2023-04-01T18:52:02;11.00;99.90
1880;DHT22;49285;49.002;8.390;2023-04-01T18:57:14;10.80;99.90
1880;DHT22;49285;49.002;8.390;2023-04-01T18:59:50;10.80;99.90
1880;DHT22;49285;49.002;8.390;2023-04-01T19:05:12;10.80;99.90
1880;DHT22;49285;49.002;8.390;2023-04-01T19:07:56;10.90;99.90
1880;DHT22;49285;49.002;8.390;2023-04-01T19:21:42;10.70;99.90
1880;DHT22;49285;49.002;8.390;2023-04-01T19:27:34;10.80;99.90
1880;DHT22;49285;49.002;8.390;2023-04-01T19:30:26;10.90;99.90
1880;DHT22;49285;49.002;8.390;2023-04-01T19:36:00;11.00;99.90
1880;DHT22;49285;49.002;8.390;2023-04-01T19:47:05;11.10;99.90
1880;DHT22;49285;49.002;8.390;2023-04-01T19:52:40;11.00;99.90
1880;DHT22;49285;49.002;8.390;2023-04-01T19:55:52;11.10;99.90
1880;DHT22;49285;49.002;8.390;2023-04-01T19:58:16;11.10;99.90
1880;DHT22;49285;49.002;8.390;2023-04-01T20:06:21;11.20;99.90
1880;DHT22;49285;49.002;8.390;2023-04-01T20:11:38;11.20;99.90
1880;DHT22;49285;49.002;8.390;2023-04-01T20:19:43;11.20;99.90
1880;DHT22;49285;49.002;8.390;2023-04-01T20:22:24;11.20;99.90
1880;DHT22;49285;49.002;8.390;2023-04-01T20:24:58;11.10;99.90
1880;DHT22;49285;49.002;8.390;2023-04-01T20:27:32;11.20;99.90
1880;DHT22;49285;49.002;8.390;2023-04-01T20:35:50;11.30;99.90
1880;DHT22;49285;49.002;8.390;2023-04-01T20:46:56;11.30;99.90
1880;DHT22;49285;49.002;8.390;2023-04-01T20:52:18;11.40;99.90
1880;DHT22;49285;49.002;8.390;2023-04-01T20:57:35;11.40;99.90
1880;DHT22;49285;49.002;8.390;2023-04-01T21:00:31;11.40;99.90
1880;DHT22;49285;49.002;8.390;2023-04-01T21:03:22;11.40;99.90
1880;DHT22;49285;49.002;8.390;2023-04-01T21:09:37;11.40;99.90
1880;DHT22;49285;49.002;8.390;2023-04-01T21:22:35;11.20;99.90
1880;DHT22;49285;49.002;8.390;2023-04-01T21:39:01;11.10;99.90
1880;DHT22;49285;49.002;8.390;2023-04-01T21:47:02;11.00;99.90
1880;DHT22;49285;49.002;8.390;2023-04-01T22:00:38;11.00;99.90
1880;DHT22;49285;49.002;8.390;2023-04-01T22:03:30;11.10;99.90
1880;DHT22;49285;49.002;8.390;2023-04-01T22:06:11;11.10;99.90
1880;DHT22;49285;49.002;8.390;2023-04-01T22:11:34;11.10;99.90
1880;DHT22;49285;49.002;8.390;2023-04-01T22:14:19;11.10;99.90
1880;DHT22;49285;49.002;8.390;2023-04-01T22:17:04;11.10;99.90
1880;DHT22;49285;49.002;8.390;2023-04-01T22:19:48;11.00;99.90
1880;DHT22;49285;49.002;8.390;2023-04-01T22:22:30;11.00;99.90
1880;DHT22;49285;49.002;8.390;2023-04-01T22:25:15;11.10;99.90
1880;DHT22;49285;49.002;8.390;2023-04-01T22:27:49;11.00;99.90
1880;DHT22;49285;49.002;8.390;2023-04-01T22:30:33;11.00;99.90
1880;DHT22;49285;49.002;8.390;2023-04-01T22:33:14;11.10;99.90
1880;DHT22;49285;49.002;8.390;2023-04-01T22:36:05;11.10;99.90
1880;DHT22;49285;49.002;8.390;2023-04-01T22:41:35;11.20;99.90
1880;DHT22;49285;49.002;8.390;2023-04-01T22:44:03;11.10;99.90
1880;DHT22;49285;49.002;8.390;2023-04-01T22:49:22;11.10;99.90
1880;DHT22;49285;49.002;8.390;2023-04-01T22:52:20;11.00;99.90
1880;DHT22;49285;49.002;8.390;2023-04-01T22:54:53;11.10;99.90
1880;DHT22;49285;49.002;8.390;2023-04-01T22:57:37;11.10;99.90
1880;DHT22;49285;49.002;8.390;2023-04-01T23:00:30;11.10;99.90
1880;DHT22;49285;49.002;8.390;2023-04-01T23:03:30;11.10;99.90
1880;DHT22;49285;49.002;8.390;2023-04-01T23:05:57;11.00;99.90
1880;DHT22;49285;49.002;8.390;2023-04-01T23:08:53;11.00;99.90
1880;DHT22;49285;49.002;8.390;2023-04-01T23:17:17;11.10;99.90
1880;DHT22;49285;49.002;8.390;2023-04-01T23:20:17;11.00;99.90
1880;DHT22;49285;49.002;8.390;2023-04-01T23:26:10;11.00;99.90
1880;DHT22;49285;49.002;8.390;2023-04-01T23:28:45;11.00;99.90
1880;DHT22;49285;49.002;8.390;2023-04-01T23:31:27;10.90;99.90
1880;DHT22;49285;49.002;8.390;2023-04-01T23:33:56;10.90;99.90
1880;DHT22;49285;49.002;8.390;2023-04-01T23:36:22;10.90;99.90
1880;DHT22;49285;49.002;8.390;2023-04-01T23:38:49;10.90;99.90
1880;DHT22;49285;49.002;8.390;2023-04-01T23:41:23;10.80;99.90
1880;DHT22;49285;49.002;8.390;2023-04-01T23:44:15;10.70;99.90
1880;DHT22;49285;49.002;8.390;2023-04-01T23:46:42;10.60;99.90
1880;DHT22;49285;49.002;8.390;2023-04-01T23:49:17;10.70;99.90
1880;DHT22;49285;49.002;8.390;2023-04-01T23:51:54;10.60;99.90
1880;DHT22;49285;49.002;8.390;2023-04-01T23:56:57;10.50;99.90
1880;DHT22;49285;49.002;8.390;2023-04-01T23:59:30;10.50;99.90
